sensor_id;sensor_type;location;lat;lon;timestamp;temperature;humidity
5806;DHT22;2929;50.810;8.342;2023-02-28T00:00:33;-1.60;99.90
5806;DHT22;2929;50.810;8.342;2023-02-28T00:03:01;-1.70;99.90
5806;DHT22;2929;50.810;8.342;2023-02-28T00:05:28;-1.70;99.90
5806;DHT22;2929;50.810;8.342;2023-02-28T00:07:56;-1.70;99.90
5806;DHT22;2929;50.810;8.342;2023-02-28T00:10:24;-1.70;99.90
5806;DHT22;2929;50.810;8.342;2023-02-28T00:12:55;-1.80;99.90
5806;DHT22;2929;50.810;8.342;2023-02-28T00:15:23;-1.80;99.90
5806;DHT22;2929;50.810;8.342;2023-02-28T00:17:51;-1.80;99.90
5806;DHT22;2929;50.810;8.342;2023-02-28T00:20:18;-1.90;99.90
5806;DHT22;2929;50.810;8.342;2023-02-28T00:22:47;-1.90;99.90
5806;DHT22;2929;50.810;8.342;2023-02-28T00:25:17;-1.90;99.90
5806;DHT22;2929;50.810;8.342;2023-02-28T00:27:44;-1.90;99.90
5806;DHT22;2929;50.810;8.342;2023-02-28T00:30:15;-2.00;99.90
5806;DHT22;2929;50.810;8.342;2023-02-28T00:32:42;-2.00;99.90
5806;DHT22;2929;50.810;8.342;2023-02-28T00:35:10;-2.00;99.90
5806;DHT22;2929;50.810;8.342;2023-02-28T00:37:37;-2.00;99.90
5806;DHT22;2929;50.810;8.342;2023-02-28T00:40:06;-2.00;99.90
5806;DHT22;2929;50.810;8.342;2023-02-28T00:42:37;-2.00;99.90
5806;DHT22;2929;50.810;8.342;2023-02-28T00:45:05;-2.00;99.90
5806;DHT22;2929;50.810;8.342;2023-02-28T00:47:33;-2.00;99.90
5806;DHT22;2929;50.810;8.342;2023-02-28T00:50:01;-2.00;99.90
5806;DHT22;2929;50.810;8.342;2023-02-28T00:52:28;-2.00;99.90
5806;DHT22;2929;50.810;8.342;2023-02-28T00:54:55;-2.00;99.90
5806;DHT22;2929;50.810;8.342;2023-02-28T00:57:22;-2.00;99.90
5806;DHT22;2929;50.810;8.342;2023-02-28T00:59:49;-2.00;99.90
5806;DHT22;2929;50.810;8.342;2023-02-28T01:02:16;-1.90;99.90
5806;DHT22;2929;50.810;8.342;2023-02-28T01:04:45;-1.80;99.90
5806;DHT22;2929;50.810;8.342;2023-02-28T01:07:12;-1.80;99.90
5806;DHT22;2929;50.810;8.342;2023-02-28T01:09:40;-1.70;99.90
5806;DHT22;2929;50.810;8.342;2023-02-28T01:12:07;-1.60;99.90
5806;DHT22;2929;50.810;8.342;2023-02-28T01:14:34;-1.50;99.90
5806;DHT22;2929;50.810;8.342;2023-02-28T01:17:01;-1.40;99.90
5806;DHT22;2929;50.810;8.342;2023-02-28T01:19:28;-1.30;99.90
5806;DHT22;2929;50.810;8.342;2023-02-28T01:21:57;-1.20;99.90
5806;DHT22;2929;50.810;8.342;2023-02-28T01:24:26;-1.20;99.90
5806;DHT22;2929;50.810;8.342;2023-02-28T01:26:53;-1.10;99.90
5806;DHT22;2929;50.810;8.342;2023-02-28T01:29:20;-1.00;99.90
5806;DHT22;2929;50.810;8.342;2023-02-28T01:31:47;-1.10;99.90
5806;DHT22;2929;50.810;8.342;2023-02-28T01:34:14;-1.00;99.90
5806;DHT22;2929;50.810;8.342;2023-02-28T01:36:41;-1.00;99.90
5806;DHT22;2929;50.810;8.342;2023-02-28T01:39:11;-0.90;99.90
5806;DHT22;2929;50.810;8.342;2023-02-28T01:41:39;-0.90;99.90
5806;DHT22;2929;50.810;8.342;2023-02-28T01:46:49;-0.90;99.90
5806;DHT22;2929;50.810;8.342;2023-02-28T01:49:17;-0.90;99.90
5806;DHT22;2929;50.810;8.342;2023-02-28T01:51:46;-0.90;99.90
5806;DHT22;2929;50.810;8.342;2023-02-28T01:54:20;-0.90;99.90
5806;DHT22;2929;50.810;8.342;2023-02-28T01:56:52;-0.90;99.90
5806;DHT22;2929;50.810;8.342;2023-02-28T01:59:24;-0.90;99.90
5806;DHT22;2929;50.810;8.342;2023-02-28T02:01:55;-0.90;99.90
5806;DHT22;2929;50.810;8.342;2023-02-28T02:04:23;-0.90;99.90
5806;DHT22;2929;50.810;8.342;2023-02-28T02:06:52;-0.90;99.90
5806;DHT22;2929;50.810;8.342;2023-02-28T02:09:21;-1.00;99.90
5806;DHT22;2929;50.810;8.342;2023-02-28T02:11:48;-1.00;99.90
5806;DHT22;2929;50.810;8.342;2023-02-28T02:14:36;-1.00;99.90
5806;DHT22;2929;50.810;8.342;2023-02-28T02:17:19;-1.00;99.90
5806;DHT22;2929;50.810;8.342;2023-02-28T02:20:17;-1.00;99.90
5806;DHT22;2929;50.810;8.342;2023-02-28T02:23:16;-1.10;99.90
5806;DHT22;2929;50.810;8.342;2023-02-28T02:25:53;-1.10;99.90
5806;DHT22;2929;50.810;8.342;2023-02-28T02:28:34;-1.10;99.90
5806;DHT22;2929;50.810;8.342;2023-02-28T02:31:25;-1.20;99.90
5806;DHT22;2929;50.810;8.342;2023-02-28T02:37:21;-1.30;99.90
5806;DHT22;2929;50.810;8.342;2023-02-28T02:39:54;-1.30;99.90
5806;DHT22;2929;50.810;8.342;2023-02-28T02:42:28;-1.30;99.90
5806;DHT22;2929;50.810;8.342;2023-02-28T02:45:01;-1.40;99.90
5806;DHT22;2929;50.810;8.342;2023-02-28T02:47:31;-1.40;99.90
5806;DHT22;2929;50.810;8.342;2023-02-28T02:50:05;-1.40;99.90
5806;DHT22;2929;50.810;8.342;2023-02-28T02:52:40;-1.40;99.90
5806;DHT22;2929;50.810;8.342;2023-02-28T02:55:11;-1.50;99.90
5806;DHT22;2929;50.810;8.342;2023-02-28T02:57:44;-1.60;99.90
5806;DHT22;2929;50.810;8.342;2023-02-28T03:00:14;-1.60;99.90
5806;DHT22;2929;50.810;8.342;2023-02-28T03:02:44;-1.70;99.90
5806;DHT22;2929;50.810;8.342;2023-02-28T03:05:16;-1.70;99.90
5806;DHT22;2929;50.810;8.342;2023-02-28T03:07:46;-1.80;99.90
5806;DHT22;2929;50.810;8.342;2023-02-28T03:10:28;-1.90;99.90
5806;DHT22;2929;50.810;8.342;2023-02-28T03:15:53;-1.90;99.90
5806;DHT22;2929;50.810;8.342;2023-02-28T03:18:26;-2.00;99.90
5806;DHT22;2929;50.810;8.342;2023-02-28T03:21:01;-2.00;99.90
5806;DHT22;2929;50.810;8.342;2023-02-28T03:23:40;-2.00;99.90
5806;DHT22;2929;50.810;8.342;2023-02-28T03:26:13;-2.10;99.90
5806;DHT22;2929;50.810;8.342;2023-02-28T03:28:51;-2.20;99.90
5806;DHT22;2929;50.810;8.342;2023-02-28T03:31:27;-2.20;99.90
5806;DHT22;2929;50.810;8.342;2023-02-28T03:33:59;-2.30;99.90
5806;DHT22;2929;50.810;8.342;2023-02-28T03:36:29;-2.30;99.90
5806;DHT22;2929;50.810;8.342;2023-02-28T03:39:02;-2.30;99.90
5806;DHT22;2929;50.810;8.342;2023-02-28T03:41:35;-2.30;99.90
5806;DHT22;2929;50.810;8.342;2023-02-28T03:44:09;-2.30;99.90
5806;DHT22;2929;50.810;8.342;2023-02-28T03:46:43;-2.40;99.90
5806;DHT22;2929;50.810;8.342;2023-02-28T03:49:15;-2.50;99.90
5806;DHT22;2929;50.810;8.342;2023-02-28T03:51:46;-2.50;99.90
5806;DHT22;2929;50.810;8.342;2023-02-28T03:54:19;-2.50;99.90
5806;DHT22;2929;50.810;8.342;2023-02-28T03:56:52;-2.60;99.90
5806;DHT22;2929;50.810;8.342;2023-02-28T03:59:22;-2.60;99.90
5806;DHT22;2929;50.810;8.342;2023-02-28T04:01:51;-2.60;99.90
5806;DHT22;2929;50.810;8.342;2023-02-28T04:04:18;-2.60;99.90
5806;DHT22;2929;50.810;8.342;2023-02-28T04:06:45;-2.70;99.90
5806;DHT22;2929;50.810;8.342;2023-02-28T04:09:17;-2.70;99.90
5806;DHT22;2929;50.810;8.342;2023-02-28T04:11:46;-2.80;99.90
5806;DHT22;2929;50.810;8.342;2023-02-28T04:14:14;-2.90;99.90
5806;DHT22;2929;50.810;8.342;2023-02-28T04:16:41;-3.00;99.90
5806;DHT22;2929;50.810;8.342;2023-02-28T04:19:10;-3.00;99.90
5806;DHT22;2929;50.810;8.342;2023-02-28T04:21:39;-3.00;99.90
5806;DHT22;2929;50.810;8.342;2023-02-28T04:24:08;-3.00;99.90
5806;DHT22;2929;50.810;8.342;2023-02-28T04:26:42;-3.00;99.90
5806;DHT22;2929;50.810;8.342;2023-02-28T04:29:10;-3.10;99.90
5806;DHT22;2929;50.810;8.342;2023-02-28T04:31:37;-3.30;99.90
5806;DHT22;2929;50.810;8.342;2023-02-28T04:34:05;-3.40;99.90
5806;DHT22;2929;50.810;8.342;2023-02-28T04:36:32;-3.40;99.90
5806;DHT22;2929;50.810;8.342;2023-02-28T04:38:59;-3.40;99.90
5806;DHT22;2929;50.810;8.342;2023-02-28T04:41:26;-3.40;99.90
5806;DHT22;2929;50.810;8.342;2023-02-28T04:43:55;-3.50;99.90
5806;DHT22;2929;50.810;8.342;2023-02-28T04:46:23;-3.50;99.90
5806;DHT22;2929;50.810;8.342;2023-02-28T04:48:50;-3.70;99.90
5806;DHT22;2929;50.810;8.342;2023-02-28T04:51:18;-3.60;99.90
5806;DHT22;2929;50.810;8.342;2023-02-28T04:53:46;-3.70;99.90
5806;DHT22;2929;50.810;8.342;2023-02-28T04:56:15;-3.80;99.90
5806;DHT22;2929;50.810;8.342;2023-02-28T04:58:43;-3.80;99.90
5806;DHT22;2929;50.810;8.342;2023-02-28T05:01:19;-3.80;99.90
5806;DHT22;2929;50.810;8.342;2023-02-28T05:03:47;-3.80;99.90
5806;DHT22;2929;50.810;8.342;2023-02-28T05:06:15;-3.90;99.90
5806;DHT22;2929;50.810;8.342;2023-02-28T05:08:42;-3.80;99.90
5806;DHT22;2929;50.810;8.342;2023-02-28T05:11:15;-3.90;99.90
5806;DHT22;2929;50.810;8.342;2023-02-28T05:13:43;-3.90;99.90
5806;DHT22;2929;50.810;8.342;2023-02-28T05:16:10;-3.90;99.90
5806;DHT22;2929;50.810;8.342;2023-02-28T05:18:39;-4.00;99.90
5806;DHT22;2929;50.810;8.342;2023-02-28T05:21:06;-4.00;99.90
5806;DHT22;2929;50.810;8.342;2023-02-28T05:23:33;-3.90;99.90
5806;DHT22;2929;50.810;8.342;2023-02-28T05:26:00;-3.80;99.90
5806;DHT22;2929;50.810;8.342;2023-02-28T05:28:27;-3.80;99.90
5806;DHT22;2929;50.810;8.342;2023-02-28T05:30:54;-3.70;99.90
5806;DHT22;2929;50.810;8.342;2023-02-28T05:33:21;-3.70;99.90
5806;DHT22;2929;50.810;8.342;2023-02-28T05:35:49;-3.70;99.90
5806;DHT22;2929;50.810;8.342;2023-02-28T05:38:17;-3.80;99.90
5806;DHT22;2929;50.810;8.342;2023-02-28T05:40:44;-3.90;99.90
5806;DHT22;2929;50.810;8.342;2023-02-28T05:43:11;-4.00;99.90
5806;DHT22;2929;50.810;8.342;2023-02-28T05:45:38;-4.00;99.90
5806;DHT22;2929;50.810;8.342;2023-02-28T05:48:06;-4.00;99.90
5806;DHT22;2929;50.810;8.342;2023-02-28T05:50:33;-4.10;99.90
5806;DHT22;2929;50.810;8.342;2023-02-28T05:53:01;-4.10;99.90
5806;DHT22;2929;50.810;8.342;2023-02-28T05:55:28;-4.20;99.90
5806;DHT22;2929;50.810;8.342;2023-02-28T05:57:56;-4.20;99.90
5806;DHT22;2929;50.810;8.342;2023-02-28T06:00:23;-4.20;99.90
5806;DHT22;2929;50.810;8.342;2023-02-28T06:02:50;-4.10;99.90
5806;DHT22;2929;50.810;8.342;2023-02-28T06:05:22;-4.00;99.90
5806;DHT22;2929;50.810;8.342;2023-02-28T06:07:49;-3.90;99.90
5806;DHT22;2929;50.810;8.342;2023-02-28T06:10:17;-3.70;99.90
5806;DHT22;2929;50.810;8.342;2023-02-28T06:12:45;-3.60;99.90
5806;DHT22;2929;50.810;8.342;2023-02-28T06:15:13;-3.40;99.90
5806;DHT22;2929;50.810;8.342;2023-02-28T06:17:41;-3.30;99.90
5806;DHT22;2929;50.810;8.342;2023-02-28T06:20:09;-3.10;99.90
5806;DHT22;2929;50.810;8.342;2023-02-28T06:22:38;-2.90;99.90
5806;DHT22;2929;50.810;8.342;2023-02-28T06:25:07;-2.60;99.90
5806;DHT22;2929;50.810;8.342;2023-02-28T06:27:35;-2.40;99.90
5806;DHT22;2929;50.810;8.342;2023-02-28T06:30:03;-2.40;99.90
5806;DHT22;2929;50.810;8.342;2023-02-28T06:32:30;-2.20;99.90
5806;DHT22;2929;50.810;8.342;2023-02-28T06:34:57;-2.10;99.90
5806;DHT22;2929;50.810;8.342;2023-02-28T06:37:24;-2.00;99.90
5806;DHT22;2929;50.810;8.342;2023-02-28T06:39:53;-2.00;99.90
5806;DHT22;2929;50.810;8.342;2023-02-28T06:42:21;-1.90;99.90
5806;DHT22;2929;50.810;8.342;2023-02-28T06:44:52;-1.80;99.90
5806;DHT22;2929;50.810;8.342;2023-02-28T06:47:19;-1.70;99.90
5806;DHT22;2929;50.810;8.342;2023-02-28T06:49:46;-1.60;99.90
5806;DHT22;2929;50.810;8.342;2023-02-28T06:52:14;-1.60;99.90
5806;DHT22;2929;50.810;8.342;2023-02-28T06:54:41;-1.50;99.90
5806;DHT22;2929;50.810;8.342;2023-02-28T06:57:08;-1.50;99.90
5806;DHT22;2929;50.810;8.342;2023-02-28T06:59:35;-1.40;99.90
5806;DHT22;2929;50.810;8.342;2023-02-28T07:02:04;-1.30;99.90
5806;DHT22;2929;50.810;8.342;2023-02-28T07:04:32;-1.30;99.90
5806;DHT22;2929;50.810;8.342;2023-02-28T07:06:59;-1.20;99.90
5806;DHT22;2929;50.810;8.342;2023-02-28T07:09:26;-1.10;99.90
5806;DHT22;2929;50.810;8.342;2023-02-28T07:11:55;-1.10;99.90
5806;DHT22;2929;50.810;8.342;2023-02-28T07:14:23;-1.00;99.90
5806;DHT22;2929;50.810;8.342;2023-02-28T07:16:50;-1.00;99.90
5806;DHT22;2929;50.810;8.342;2023-02-28T07:19:18;-1.00;99.90
5806;DHT22;2929;50.810;8.342;2023-02-28T07:21:45;-0.90;99.90
5806;DHT22;2929;50.810;8.342;2023-02-28T07:24:12;-0.90;99.90
5806;DHT22;2929;50.810;8.342;2023-02-28T07:26:41;-0.90;99.90
5806;DHT22;2929;50.810;8.342;2023-02-28T07:29:08;-0.80;99.90
5806;DHT22;2929;50.810;8.342;2023-02-28T07:31:35;-0.70;99.90
5806;DHT22;2929;50.810;8.342;2023-02-28T07:34:02;-0.70;99.90
5806;DHT22;2929;50.810;8.342;2023-02-28T07:36:31;-0.70;99.90
5806;DHT22;2929;50.810;8.342;2023-02-28T07:38:59;-0.70;99.90
5806;DHT22;2929;50.810;8.342;2023-02-28T07:41:26;-0.70;99.90
5806;DHT22;2929;50.810;8.342;2023-02-28T07:43:55;-0.70;99.90
5806;DHT22;2929;50.810;8.342;2023-02-28T07:46:23;-0.70;99.90
5806;DHT22;2929;50.810;8.342;2023-02-28T07:48:50;-0.70;99.90
5806;DHT22;2929;50.810;8.342;2023-02-28T07:51:18;-0.70;99.90
5806;DHT22;2929;50.810;8.342;2023-02-28T07:57:28;-0.70;99.90
5806;DHT22;2929;50.810;8.342;2023-02-28T08:03:42;-0.60;99.90
5806;DHT22;2929;50.810;8.342;2023-02-28T08:06:17;-0.60;99.90
5806;DHT22;2929;50.810;8.342;2023-02-28T08:08:44;-0.60;99.90
5806;DHT22;2929;50.810;8.342;2023-02-28T08:11:13;-0.50;99.90
5806;DHT22;2929;50.810;8.342;2023-02-28T08:13:40;-0.40;99.90
5806;DHT22;2929;50.810;8.342;2023-02-28T08:16:10;-0.40;99.90
5806;DHT22;2929;50.810;8.342;2023-02-28T08:18:37;-0.30;99.90
5806;DHT22;2929;50.810;8.342;2023-02-28T08:21:07;-0.30;99.90
5806;DHT22;2929;50.810;8.342;2023-02-28T08:23:35;-0.20;99.90
5806;DHT22;2929;50.810;8.342;2023-02-28T08:26:02;-0.20;99.90
5806;DHT22;2929;50.810;8.342;2023-02-28T08:28:31;-0.20;99.90
5806;DHT22;2929;50.810;8.342;2023-02-28T08:30:58;-0.20;99.90
5806;DHT22;2929;50.810;8.342;2023-02-28T08:33:27;-0.10;99.90
5806;DHT22;2929;50.810;8.342;2023-02-28T08:35:54;0.00;99.90
5806;DHT22;2929;50.810;8.342;2023-02-28T08:38:21;0.00;99.90
5806;DHT22;2929;50.810;8.342;2023-02-28T08:40:49;0.00;99.90
5806;DHT22;2929;50.810;8.342;2023-02-28T08:43:16;0.10;99.90
5806;DHT22;2929;50.810;8.342;2023-02-28T08:45:44;0.10;99.90
5806;DHT22;2929;50.810;8.342;2023-02-28T08:48:11;0.20;99.90
5806;DHT22;2929;50.810;8.342;2023-02-28T08:50:39;0.20;99.90
5806;DHT22;2929;50.810;8.342;2023-02-28T08:53:06;0.30;99.90
5806;DHT22;2929;50.810;8.342;2023-02-28T08:55:33;0.20;99.90
5806;DHT22;2929;50.810;8.342;2023-02-28T08:58:00;0.20;99.90
5806;DHT22;2929;50.810;8.342;2023-02-28T09:00:28;0.30;99.90
5806;DHT22;2929;50.810;8.342;2023-02-28T09:02:57;0.30;99.90
5806;DHT22;2929;50.810;8.342;2023-02-28T09:05:24;0.40;99.90
5806;DHT22;2929;50.810;8.342;2023-02-28T09:07:51;0.40;99.90
5806;DHT22;2929;50.810;8.342;2023-02-28T09:10:18;0.30;99.90
5806;DHT22;2929;50.810;8.342;2023-02-28T09:12:45;0.40;99.90
5806;DHT22;2929;50.810;8.342;2023-02-28T09:15:12;0.40;99.90
5806;DHT22;2929;50.810;8.342;2023-02-28T09:17:39;0.40;99.90
5806;DHT22;2929;50.810;8.342;2023-02-28T09:20:10;0.40;99.90
5806;DHT22;2929;50.810;8.342;2023-02-28T09:22:37;0.50;99.90
5806;DHT22;2929;50.810;8.342;2023-02-28T09:25:04;0.50;99.90
5806;DHT22;2929;50.810;8.342;2023-02-28T09:27:32;0.60;99.90
5806;DHT22;2929;50.810;8.342;2023-02-28T09:29:59;0.60;99.90
5806;DHT22;2929;50.810;8.342;2023-02-28T09:32:26;0.60;99.90
5806;DHT22;2929;50.810;8.342;2023-02-28T09:34:53;0.50;99.90
5806;DHT22;2929;50.810;8.342;2023-02-28T09:37:21;0.50;99.90
5806;DHT22;2929;50.810;8.342;2023-02-28T09:39:49;0.40;99.90
5806;DHT22;2929;50.810;8.342;2023-02-28T09:42:21;0.50;99.90
5806;DHT22;2929;50.810;8.342;2023-02-28T09:44:51;0.70;99.90
5806;DHT22;2929;50.810;8.342;2023-02-28T09:47:25;0.80;99.90
5806;DHT22;2929;50.810;8.342;2023-02-28T09:49:54;1.00;99.90
5806;DHT22;2929;50.810;8.342;2023-02-28T09:52:28;1.10;99.90
5806;DHT22;2929;50.810;8.342;2023-02-28T09:55:00;1.10;99.90
5806;DHT22;2929;50.810;8.342;2023-02-28T09:57:35;1.20;99.90
5806;DHT22;2929;50.810;8.342;2023-02-28T10:00:10;1.30;99.90
5806;DHT22;2929;50.810;8.342;2023-02-28T10:02:52;1.30;99.90
5806;DHT22;2929;50.810;8.342;2023-02-28T10:05:25;1.20;99.90
5806;DHT22;2929;50.810;8.342;2023-02-28T10:08:02;1.20;99.90
5806;DHT22;2929;50.810;8.342;2023-02-28T10:10:36;1.30;99.90
5806;DHT22;2929;50.810;8.342;2023-02-28T10:13:13;1.00;99.90
5806;DHT22;2929;50.810;8.342;2023-02-28T10:15:41;1.10;99.90
5806;DHT22;2929;50.810;8.342;2023-02-28T10:18:13;1.40;99.90
5806;DHT22;2929;50.810;8.342;2023-02-28T10:20:42;1.60;99.90
5806;DHT22;2929;50.810;8.342;2023-02-28T10:23:17;1.70;99.90
5806;DHT22;2929;50.810;8.342;2023-02-28T10:25:53;1.80;99.90
5806;DHT22;2929;50.810;8.342;2023-02-28T10:28:21;2.10;99.90
5806;DHT22;2929;50.810;8.342;2023-02-28T10:30:49;2.20;99.90
5806;DHT22;2929;50.810;8.342;2023-02-28T10:33:20;2.20;99.90
5806;DHT22;2929;50.810;8.342;2023-02-28T10:35:48;2.20;99.90
5806;DHT22;2929;50.810;8.342;2023-02-28T10:38:19;2.50;99.90
5806;DHT22;2929;50.810;8.342;2023-02-28T10:40:47;2.90;99.90
5806;DHT22;2929;50.810;8.342;2023-02-28T10:43:21;3.10;99.90
5806;DHT22;2929;50.810;8.342;2023-02-28T10:45:56;3.10;99.10
5806;DHT22;2929;50.810;8.342;2023-02-28T10:48:33;3.20;99.00
5806;DHT22;2929;50.810;8.342;2023-02-28T10:51:01;3.40;99.20
5806;DHT22;2929;50.810;8.342;2023-02-28T10:53:37;3.50;98.60
5806;DHT22;2929;50.810;8.342;2023-02-28T10:56:13;2.90;97.80
5806;DHT22;2929;50.810;8.342;2023-02-28T10:58:53;2.40;99.70
5806;DHT22;2929;50.810;8.342;2023-02-28T11:01:23;2.50;99.90
5806;DHT22;2929;50.810;8.342;2023-02-28T11:03:51;2.70;99.90
5806;DHT22;2929;50.810;8.342;2023-02-28T11:06:21;2.60;99.30
5806;DHT22;2929;50.810;8.342;2023-02-28T11:08:52;2.40;99.20
5806;DHT22;2929;50.810;8.342;2023-02-28T11:11:21;2.80;99.70
5806;DHT22;2929;50.810;8.342;2023-02-28T11:13:52;2.90;99.10
5806;DHT22;2929;50.810;8.342;2023-02-28T11:16:20;2.90;99.20
5806;DHT22;2929;50.810;8.342;2023-02-28T11:18:50;2.60;99.80
5806;DHT22;2929;50.810;8.342;2023-02-28T11:21:22;3.00;99.90
5806;DHT22;2929;50.810;8.342;2023-02-28T11:23:54;3.40;99.90
5806;DHT22;2929;50.810;8.342;2023-02-28T11:26:40;3.40;98.70
5806;DHT22;2929;50.810;8.342;2023-02-28T11:29:16;3.20;98.30
5806;DHT22;2929;50.810;8.342;2023-02-28T11:32:02;3.20;98.60
5806;DHT22;2929;50.810;8.342;2023-02-28T11:34:30;2.90;98.50
5806;DHT22;2929;50.810;8.342;2023-02-28T11:36:59;2.80;98.60
5806;DHT22;2929;50.810;8.342;2023-02-28T11:39:32;2.80;99.60
5806;DHT22;2929;50.810;8.342;2023-02-28T11:42:11;3.10;98.60
5806;DHT22;2929;50.810;8.342;2023-02-28T11:44:53;3.50;98.00
5806;DHT22;2929;50.810;8.342;2023-02-28T11:47:29;4.20;96.90
5806;DHT22;2929;50.810;8.342;2023-02-28T11:50:14;4.50;96.90
5806;DHT22;2929;50.810;8.342;2023-02-28T11:52:47;4.60;95.80
5806;DHT22;2929;50.810;8.342;2023-02-28T11:55:20;4.30;96.00
5806;DHT22;2929;50.810;8.342;2023-02-28T11:58:11;4.20;95.60
5806;DHT22;2929;50.810;8.342;2023-02-28T12:01:09;4.50;95.50
5806;DHT22;2929;50.810;8.342;2023-02-28T12:03:44;4.30;95.20
5806;DHT22;2929;50.810;8.342;2023-02-28T12:06:20;4.60;94.30
5806;DHT22;2929;50.810;8.342;2023-02-28T12:09:08;5.30;94.60
5806;DHT22;2929;50.810;8.342;2023-02-28T12:11:48;5.70;94.10
5806;DHT22;2929;50.810;8.342;2023-02-28T12:14:30;6.00;93.90
5806;DHT22;2929;50.810;8.342;2023-02-28T12:17:08;5.90;92.30
5806;DHT22;2929;50.810;8.342;2023-02-28T12:19:45;5.50;92.40
5806;DHT22;2929;50.810;8.342;2023-02-28T12:22:26;5.20;93.10
5806;DHT22;2929;50.810;8.342;2023-02-28T12:25:10;5.40;94.60
5806;DHT22;2929;50.810;8.342;2023-02-28T12:27:46;5.50;93.70
5806;DHT22;2929;50.810;8.342;2023-02-28T12:30:17;4.70;92.90
5806;DHT22;2929;50.810;8.342;2023-02-28T12:32:48;4.40;93.90
5806;DHT22;2929;50.810;8.342;2023-02-28T12:35:20;4.30;94.70
5806;DHT22;2929;50.810;8.342;2023-02-28T12:37:54;4.90;95.50
5806;DHT22;2929;50.810;8.342;2023-02-28T12:40:25;5.40;94.20
5806;DHT22;2929;50.810;8.342;2023-02-28T12:42:57;5.60;92.20
5806;DHT22;2929;50.810;8.342;2023-02-28T12:45:31;5.90;91.80
5806;DHT22;2929;50.810;8.342;2023-02-28T12:48:05;6.80;91.00
5806;DHT22;2929;50.810;8.342;2023-02-28T12:50:35;7.10;88.70
5806;DHT22;2929;50.810;8.342;2023-02-28T12:53:05;7.30;86.70
5806;DHT22;2929;50.810;8.342;2023-02-28T12:55:40;7.50;85.00
5806;DHT22;2929;50.810;8.342;2023-02-28T12:58:17;7.40;84.90
5806;DHT22;2929;50.810;8.342;2023-02-28T13:01:13;7.80;84.20
5806;DHT22;2929;50.810;8.342;2023-02-28T13:03:57;8.40;81.80
5806;DHT22;2929;50.810;8.342;2023-02-28T13:06:45;8.60;81.50
5806;DHT22;2929;50.810;8.342;2023-02-28T13:09:20;9.20;77.70
5806;DHT22;2929;50.810;8.342;2023-02-28T13:11:48;8.30;78.10
5806;DHT22;2929;50.810;8.342;2023-02-28T13:14:26;8.10;79.40
5806;DHT22;2929;50.810;8.342;2023-02-28T13:16:59;8.30;80.40
5806;DHT22;2929;50.810;8.342;2023-02-28T13:19:28;7.70;79.70
5806;DHT22;2929;50.810;8.342;2023-02-28T13:21:57;7.20;85.90
5806;DHT22;2929;50.810;8.342;2023-02-28T13:24:41;7.70;83.10
5806;DHT22;2929;50.810;8.342;2023-02-28T13:27:24;7.80;82.70
5806;DHT22;2929;50.810;8.342;2023-02-28T13:30:00;8.60;81.70
5806;DHT22;2929;50.810;8.342;2023-02-28T13:32:30;9.00;81.70
5806;DHT22;2929;50.810;8.342;2023-02-28T13:35:33;8.70;79.30
5806;DHT22;2929;50.810;8.342;2023-02-28T13:38:38;9.30;78.40
5806;DHT22;2929;50.810;8.342;2023-02-28T13:41:43;9.30;78.00
5806;DHT22;2929;50.810;8.342;2023-02-28T13:44:12;9.20;76.70
5806;DHT22;2929;50.810;8.342;2023-02-28T13:49:44;8.90;79.30
5806;DHT22;2929;50.810;8.342;2023-02-28T13:52:16;9.00;75.30
5806;DHT22;2929;50.810;8.342;2023-02-28T13:55:06;8.70;76.10
5806;DHT22;2929;50.810;8.342;2023-02-28T13:57:53;8.60;77.60
5806;DHT22;2929;50.810;8.342;2023-02-28T14:00:37;8.60;76.50
5806;DHT22;2929;50.810;8.342;2023-02-28T14:03:16;8.50;77.90
5806;DHT22;2929;50.810;8.342;2023-02-28T14:05:47;8.70;78.00
5806;DHT22;2929;50.810;8.342;2023-02-28T14:08:34;8.70;77.50
5806;DHT22;2929;50.810;8.342;2023-02-28T14:11:04;8.30;79.30
5806;DHT22;2929;50.810;8.342;2023-02-28T14:13:41;8.60;79.70
5806;DHT22;2929;50.810;8.342;2023-02-28T14:16:13;8.50;77.70
5806;DHT22;2929;50.810;8.342;2023-02-28T14:18:43;8.30;77.10
5806;DHT22;2929;50.810;8.342;2023-02-28T14:21:21;8.00;79.40
5806;DHT22;2929;50.810;8.342;2023-02-28T14:24:41;7.70;78.30
5806;DHT22;2929;50.810;8.342;2023-02-28T14:27:32;8.10;79.80
5806;DHT22;2929;50.810;8.342;2023-02-28T14:33:10;7.90;79.90
5806;DHT22;2929;50.810;8.342;2023-02-28T14:36:01;7.70;79.10
5806;DHT22;2929;50.810;8.342;2023-02-28T14:38:35;7.50;78.70
5806;DHT22;2929;50.810;8.342;2023-02-28T14:41:05;7.80;79.70
5806;DHT22;2929;50.810;8.342;2023-02-28T14:43:33;8.30;77.40
5806;DHT22;2929;50.810;8.342;2023-02-28T14:46:02;9.10;74.70
5806;DHT22;2929;50.810;8.342;2023-02-28T14:48:30;9.30;74.10
5806;DHT22;2929;50.810;8.342;2023-02-28T14:51:00;10.30;71.40
5806;DHT22;2929;50.810;8.342;2023-02-28T14:53:36;11.50;68.20
5806;DHT22;2929;50.810;8.342;2023-02-28T14:56:05;12.20;64.40
5806;DHT22;2929;50.810;8.342;2023-02-28T14:58:33;12.20;62.60
5806;DHT22;2929;50.810;8.342;2023-02-28T15:01:01;12.60;62.30
5806;DHT22;2929;50.810;8.342;2023-02-28T15:03:32;12.10;62.50
5806;DHT22;2929;50.810;8.342;2023-02-28T15:06:00;12.20;61.70
5806;DHT22;2929;50.810;8.342;2023-02-28T15:08:31;11.90;61.00
5806;DHT22;2929;50.810;8.342;2023-02-28T15:11:03;11.70;63.10
5806;DHT22;2929;50.810;8.342;2023-02-28T15:13:37;12.10;61.60
5806;DHT22;2929;50.810;8.342;2023-02-28T15:16:08;12.40;60.70
5806;DHT22;2929;50.810;8.342;2023-02-28T15:18:44;12.20;61.80
5806;DHT22;2929;50.810;8.342;2023-02-28T15:21:16;11.10;63.20
5806;DHT22;2929;50.810;8.342;2023-02-28T15:23:48;10.70;63.00
5806;DHT22;2929;50.810;8.342;2023-02-28T15:26:16;10.30;64.70
5806;DHT22;2929;50.810;8.342;2023-02-28T15:28:46;9.70;66.20
5806;DHT22;2929;50.810;8.342;2023-02-28T15:31:23;9.40;67.80
5806;DHT22;2929;50.810;8.342;2023-02-28T15:33:54;9.40;69.30
5806;DHT22;2929;50.810;8.342;2023-02-28T15:36:26;8.80;69.60
5806;DHT22;2929;50.810;8.342;2023-02-28T15:38:55;8.70;70.30
5806;DHT22;2929;50.810;8.342;2023-02-28T15:41:26;8.70;69.60
5806;DHT22;2929;50.810;8.342;2023-02-28T15:44:16;8.30;70.90
5806;DHT22;2929;50.810;8.342;2023-02-28T15:46:53;8.80;71.00
5806;DHT22;2929;50.810;8.342;2023-02-28T15:49:22;9.00;70.00
5806;DHT22;2929;50.810;8.342;2023-02-28T15:51:51;9.20;71.10
5806;DHT22;2929;50.810;8.342;2023-02-28T15:54:23;9.50;69.70
5806;DHT22;2929;50.810;8.342;2023-02-28T15:56:55;9.20;69.90
5806;DHT22;2929;50.810;8.342;2023-02-28T15:59:24;9.50;69.30
5806;DHT22;2929;50.810;8.342;2023-02-28T16:02:14;9.10;68.90
5806;DHT22;2929;50.810;8.342;2023-02-28T16:04:58;8.70;70.00
5806;DHT22;2929;50.810;8.342;2023-02-28T16:07:25;8.60;71.20
5806;DHT22;2929;50.810;8.342;2023-02-28T16:09:55;8.30;72.30
5806;DHT22;2929;50.810;8.342;2023-02-28T16:12:26;8.10;73.40
5806;DHT22;2929;50.810;8.342;2023-02-28T16:14:55;7.80;74.40
5806;DHT22;2929;50.810;8.342;2023-02-28T16:17:25;7.70;74.80
5806;DHT22;2929;50.810;8.342;2023-02-28T16:19:53;7.70;75.90
5806;DHT22;2929;50.810;8.342;2023-02-28T16:22:20;6.80;77.60
5806;DHT22;2929;50.810;8.342;2023-02-28T16:24:47;6.30;79.80
5806;DHT22;2929;50.810;8.342;2023-02-28T16:27:19;5.90;80.70
5806;DHT22;2929;50.810;8.342;2023-02-28T16:29:47;5.70;82.50
5806;DHT22;2929;50.810;8.342;2023-02-28T16:32:15;5.30;84.90
5806;DHT22;2929;50.810;8.342;2023-02-28T16:34:44;5.10;86.00
5806;DHT22;2929;50.810;8.342;2023-02-28T16:37:15;4.90;88.40
5806;DHT22;2929;50.810;8.342;2023-02-28T16:39:44;4.80;89.70
5806;DHT22;2929;50.810;8.342;2023-02-28T16:42:18;4.70;90.40
5806;DHT22;2929;50.810;8.342;2023-02-28T16:44:47;4.60;90.40
5806;DHT22;2929;50.810;8.342;2023-02-28T16:47:14;4.70;91.30
5806;DHT22;2929;50.810;8.342;2023-02-28T16:49:42;4.50;91.30
5806;DHT22;2929;50.810;8.342;2023-02-28T16:52:09;4.30;91.50
5806;DHT22;2929;50.810;8.342;2023-02-28T16:54:36;4.30;91.70
5806;DHT22;2929;50.810;8.342;2023-02-28T16:57:03;4.00;92.60
5806;DHT22;2929;50.810;8.342;2023-02-28T16:59:32;4.00;93.80